Aeroporto :
LOGIN :

Iscrizione | Disclaimer

   EN    FR    IT 

 










Sommario :    VFR   VFR Marginale   IFR   IFR Intensivo   IFR Molto Intensivo
Visibilità : 
Base nubi : 
>= 8 km
>= 3000ft
5 / 8 km
1000 / 3000 ft
1500m / 5 km
500 / 1000 ft
800 / 1500m
200 / 500 ft
< 800m
< 200 ft
Simboli :   Temporali  Nebbia  Neve Forte  Precipitazioni Forti  Vento > 20 kt
SIGMETs :   Varie  Temporali  Ghiacco  Turbolenza  Onda orograficha  Ceneri Vulcaniche






- Altitudine del aeroporto : 74 ft
- Codice IATA : LRH


LFBH - La Rochelle Ile de Ré

ULTIMO METAR :
  • 120100Z AUTO 30011KT CAVOK 08/04 Q1013 BECMG 19005KT

METARs OBSOLETI :
  • 120030Z AUTO 31012KT 9999 FEW047 SCT058 BKN074 08/03 Q1013 BECMG 19005KT
  • 120000Z AUTO 35008KT 9999 FEW028 07/03 Q1014 BECMG 29015KT
  • 112330Z AUTO 30014G24KT 280V360 9999 SCT028 BKN035 BKN056 09/04 Q1014 BECMG 29015KT
  • 112300Z AUTO 28015KT 9999 SCT036/// BKN043/// BKN050/// ///TCU 09/04 Q1013 BECMG 19010KT BKN025
  • 112230Z AUTO 29019KT 9999 FEW034 09/03 Q1013 BECMG 19010KT

TAF TAF LFBH
Valido dal 12 a 00 ore il 13 a 00 ore UTC


112300Z 1200/1224 29015KT 9999 BKN025
BECMG 1202/1204 19005KT
TEMPO 1206/1210 4000 RA BKN010
BECMG 1210/1212 23015G30KT 4000 RA BKN030
TEMPO 1212/1216 21025G45KT 2000 +RA BKN010 BKN015CB
FM121600 29020G35KT 9999 BKN025
TEMPO 1220/1224 4000 SHRA FEW015CB BKN030TCU
ATIS : +33 5 46 00 13 92



MetMap, La meteo Aeronautica in un colpo d'occhio ! - Copyright ORBIFLY Dicembre 2007 - Disclaimer

ORBIFLY MET'MAP TEAM :

Programmazione e sviluppo : Alexandra Zaïnal
Concezione : Baudouin d'Aumeries
Aiuto per la programmazione : Marc-Olivier Méhu
Supporto tecnico e logistico : Manuel Goepfert
Aiuto per la traduzione : Arnaldo La Scala

Contatto : metmap@orbifly.com




FONTI E CREDITI :

   NOAA